sensor_id;sensor_type;location;lat;lon;timestamp;pressure;altitude;pressure_sealevel;temperature
85122;BMP280;75480;52.260;20.916;2024-01-16T00:00:16;98094.59;;;-0.58
85122;BMP280;75480;52.260;20.916;2024-01-16T00:02:07;98101.16;;;-0.49
85122;BMP280;75480;52.260;20.916;2024-01-16T00:03:41;98068.38;;;-0.85
85122;BMP280;75480;52.260;20.916;2024-01-16T00:05:12;98133.75;;;-0.35
85122;BMP280;75480;52.260;20.916;2024-01-16T00:06:43;98087.09;;;-0.63
85122;BMP280;75480;52.260;20.916;2024-01-16T00:08:14;98062.06;;;-0.81
85122;BMP280;75480;52.260;20.916;2024-01-16T00:09:44;98083.81;;;-0.76
85122;BMP280;75480;52.260;20.916;2024-01-16T00:11:16;98114.13;;;-0.53
85122;BMP280;75480;52.260;20.916;2024-01-16T00:12:47;98124.31;;;-0.48
85122;BMP280;75480;52.260;20.916;2024-01-16T00:14:17;98112.63;;;-0.54
85122;BMP280;75480;52.260;20.916;2024-01-16T00:15:52;98109.91;;;-0.54
85122;BMP280;75480;52.260;20.916;2024-01-16T00:17:22;98120.56;;;-0.51
85122;BMP280;75480;52.260;20.916;2024-01-16T00:18:53;98124.94;;;-0.53
85122;BMP280;75480;52.260;20.916;2024-01-16T00:20:24;98119.13;;;-0.70
85122;BMP280;75480;52.260;20.916;2024-01-16T00:21:56;98148.06;;;-0.52
85122;BMP280;75480;52.260;20.916;2024-01-16T00:23:26;98105.00;;;-0.83
85122;BMP280;75480;52.260;20.916;2024-01-16T00:24:57;98077.16;;;-1.08
85122;BMP280;75480;52.260;20.916;2024-01-16T00:26:28;98102.66;;;-0.91
85122;BMP280;75480;52.260;20.916;2024-01-16T00:27:59;98129.78;;;-0.67
85122;BMP280;75480;52.260;20.916;2024-01-16T00:29:29;98117.00;;;-0.75
85122;BMP280;75480;52.260;20.916;2024-01-16T00:31:01;98129.19;;;-0.71
85122;BMP280;75480;52.260;20.916;2024-01-16T00:32:34;98156.97;;;-0.61
85122;BMP280;75480;52.260;20.916;2024-01-16T00:34:05;98106.53;;;-1.01
85122;BMP280;75480;52.260;20.916;2024-01-16T00:35:35;98108.50;;;-1.01
85122;BMP280;75480;52.260;20.916;2024-01-16T00:37:06;98089.78;;;-1.23
85122;BMP280;75480;52.260;20.916;2024-01-16T00:38:40;98193.63;;;-0.60
85122;BMP280;75480;52.260;20.916;2024-01-16T00:40:11;98140.03;;;-0.89
85122;BMP280;75480;52.260;20.916;2024-01-16T00:41:42;98145.72;;;-0.87
85122;BMP280;75480;52.260;20.916;2024-01-16T00:43:13;98134.19;;;-0.97
85122;BMP280;75480;52.260;20.916;2024-01-16T00:44:43;98122.91;;;-1.04
85122;BMP280;75480;52.260;20.916;2024-01-16T00:46:14;98117.22;;;-0.97
85122;BMP280;75480;52.260;20.916;2024-01-16T00:47:45;98121.41;;;-0.96
85122;BMP280;75480;52.260;20.916;2024-01-16T00:49:16;98166.59;;;-0.69
85122;BMP280;75480;52.260;20.916;2024-01-16T00:50:47;98195.25;;;-0.44
85122;BMP280;75480;52.260;20.916;2024-01-16T00:52:20;98132.69;;;-0.98
85122;BMP280;75480;52.260;20.916;2024-01-16T00:53:50;98167.19;;;-0.83
85122;BMP280;75480;52.260;20.916;2024-01-16T00:55:21;98192.25;;;-0.74
85122;BMP280;75480;52.260;20.916;2024-01-16T00:56:55;98155.34;;;-0.95
85122;BMP280;75480;52.260;20.916;2024-01-16T00:58:29;98136.91;;;-1.06
85122;BMP280;75480;52.260;20.916;2024-01-16T01:00:00;98159.25;;;-0.78
85122;BMP280;75480;52.260;20.916;2024-01-16T01:01:32;98203.06;;;-0.56
85122;BMP280;75480;52.260;20.916;2024-01-16T01:03:03;98155.94;;;-0.82
85122;BMP280;75480;52.260;20.916;2024-01-16T01:04:34;98140.63;;;-1.13
85122;BMP280;75480;52.260;20.916;2024-01-16T01:06:05;98236.59;;;-0.53
85122;BMP280;75480;52.260;20.916;2024-01-16T01:07:36;98197.38;;;-0.85
85122;BMP280;75480;52.260;20.916;2024-01-16T01:09:07;98245.91;;;-0.45
85122;BMP280;75480;52.260;20.916;2024-01-16T01:10:38;98220.50;;;-0.66
85122;BMP280;75480;52.260;20.916;2024-01-16T01:12:08;98198.75;;;-0.90
85122;BMP280;75480;52.260;20.916;2024-01-16T01:13:40;98204.00;;;-0.77
85122;BMP280;75480;52.260;20.916;2024-01-16T01:15:11;98208.50;;;-0.83
85122;BMP280;75480;52.260;20.916;2024-01-16T01:16:44;98252.06;;;-0.63
85122;BMP280;75480;52.260;20.916;2024-01-16T01:18:14;98181.63;;;-1.14
85122;BMP280;75480;52.260;20.916;2024-01-16T01:19:46;98175.75;;;-1.22
85122;BMP280;75480;52.260;20.916;2024-01-16T01:21:16;98208.19;;;-0.94
85122;BMP280;75480;52.260;20.916;2024-01-16T01:22:47;98231.34;;;-0.84
85122;BMP280;75480;52.260;20.916;2024-01-16T01:24:18;98223.22;;;-0.93
85122;BMP280;75480;52.260;20.916;2024-01-16T01:25:49;98248.75;;;-0.76
85122;BMP280;75480;52.260;20.916;2024-01-16T01:27:19;98251.16;;;-0.87
85122;BMP280;75480;52.260;20.916;2024-01-16T01:28:54;98213.47;;;-1.18
85122;BMP280;75480;52.260;20.916;2024-01-16T01:30:25;98222.91;;;-1.14
85122;BMP280;75480;52.260;20.916;2024-01-16T01:31:55;98215.56;;;-1.13
85122;BMP280;75480;52.260;20.916;2024-01-16T01:33:27;98171.38;;;-1.37
85122;BMP280;75480;52.260;20.916;2024-01-16T01:34:58;98213.59;;;-1.13
85122;BMP280;75480;52.260;20.916;2024-01-16T01:36:28;98263.31;;;-0.92
85122;BMP280;75480;52.260;20.916;2024-01-16T01:37:59;98237.63;;;-1.05
85122;BMP280;75480;52.260;20.916;2024-01-16T01:39:30;98244.53;;;-1.04
85122;BMP280;75480;52.260;20.916;2024-01-16T01:41:01;98195.88;;;-1.32
85122;BMP280;75480;52.260;20.916;2024-01-16T01:42:31;98228.31;;;-1.14
85122;BMP280;75480;52.260;20.916;2024-01-16T01:44:03;98226.53;;;-1.07
85122;BMP280;75480;52.260;20.916;2024-01-16T01:45:33;98208.06;;;-1.27
85122;BMP280;75480;52.260;20.916;2024-01-16T01:47:04;98235.97;;;-1.12
85122;BMP280;75480;52.260;20.916;2024-01-16T01:48:37;98225.78;;;-1.17
85122;BMP280;75480;52.260;20.916;2024-01-16T01:50:09;98262.13;;;-1.00
85122;BMP280;75480;52.260;20.916;2024-01-16T01:51:41;98286.47;;;-0.91
85122;BMP280;75480;52.260;20.916;2024-01-16T01:53:12;98278.78;;;-1.01
85122;BMP280;75480;52.260;20.916;2024-01-16T01:54:43;98240.16;;;-1.20
85122;BMP280;75480;52.260;20.916;2024-01-16T01:56:16;98302.06;;;-0.95
85122;BMP280;75480;52.260;20.916;2024-01-16T01:57:47;98225.53;;;-1.41
85122;BMP280;75480;52.260;20.916;2024-01-16T01:59:19;98231.25;;;-1.39
85122;BMP280;75480;52.260;20.916;2024-01-16T02:00:53;98257.84;;;-1.28
85122;BMP280;75480;52.260;20.916;2024-01-16T02:02:24;98307.31;;;-1.09
85122;BMP280;75480;52.260;20.916;2024-01-16T02:03:58;98252.22;;;-1.52
85122;BMP280;75480;52.260;20.916;2024-01-16T02:05:30;98269.34;;;-1.46
85122;BMP280;75480;52.260;20.916;2024-01-16T02:07:01;98256.13;;;-1.53
85122;BMP280;75480;52.260;20.916;2024-01-16T02:08:32;98320.47;;;-1.21
85122;BMP280;75480;52.260;20.916;2024-01-16T02:10:04;98308.06;;;-1.40
85122;BMP280;75480;52.260;20.916;2024-01-16T02:11:34;98267.31;;;-1.73
85122;BMP280;75480;52.260;20.916;2024-01-16T02:13:05;98303.28;;;-1.45
85122;BMP280;75480;52.260;20.916;2024-01-16T02:14:36;98288.66;;;-1.57
85122;BMP280;75480;52.260;20.916;2024-01-16T02:16:23;98357.53;;;-1.21
85122;BMP280;75480;52.260;20.916;2024-01-16T02:17:57;98265.88;;;-1.87
85122;BMP280;75480;52.260;20.916;2024-01-16T02:19:28;98305.56;;;-1.65
85122;BMP280;75480;52.260;20.916;2024-01-16T02:21:05;98306.31;;;-1.65
85122;BMP280;75480;52.260;20.916;2024-01-16T02:22:39;98356.25;;;-1.38
85122;BMP280;75480;52.260;20.916;2024-01-16T02:24:11;98364.56;;;-1.33
85122;BMP280;75480;52.260;20.916;2024-01-16T02:25:44;98314.75;;;-1.63
85122;BMP280;75480;52.260;20.916;2024-01-16T02:27:14;98318.47;;;-1.70
85122;BMP280;75480;52.260;20.916;2024-01-16T02:28:46;98331.44;;;-1.55
85122;BMP280;75480;52.260;20.916;2024-01-16T02:30:17;98324.06;;;-1.64
85122;BMP280;75480;52.260;20.916;2024-01-16T02:31:47;98294.38;;;-1.86
85122;BMP280;75480;52.260;20.916;2024-01-16T02:33:18;98369.81;;;-1.29
85122;BMP280;75480;52.260;20.916;2024-01-16T02:34:49;98334.09;;;-1.64
85122;BMP280;75480;52.260;20.916;2024-01-16T02:36:21;98324.75;;;-1.73
85122;BMP280;75480;52.260;20.916;2024-01-16T02:37:52;98317.38;;;-1.81
85122;BMP280;75480;52.260;20.916;2024-01-16T02:39:25;98350.41;;;-1.68
85122;BMP280;75480;52.260;20.916;2024-01-16T02:40:56;98373.34;;;-1.42
85122;BMP280;75480;52.260;20.916;2024-01-16T02:42:27;98339.16;;;-1.66
85122;BMP280;75480;52.260;20.916;2024-01-16T02:43:57;98350.25;;;-1.74
85122;BMP280;75480;52.260;20.916;2024-01-16T02:45:28;98339.25;;;-1.79
85122;BMP280;75480;52.260;20.916;2024-01-16T02:46:59;98357.72;;;-1.78
85122;BMP280;75480;52.260;20.916;2024-01-16T02:48:30;98383.09;;;-1.44
85122;BMP280;75480;52.260;20.916;2024-01-16T02:50:02;98388.34;;;-1.41
85122;BMP280;75480;52.260;20.916;2024-01-16T02:51:40;98332.09;;;-1.95
85122;BMP280;75480;52.260;20.916;2024-01-16T02:53:15;98337.78;;;-1.93
85122;BMP280;75480;52.260;20.916;2024-01-16T02:54:46;98334.88;;;-1.86
85122;BMP280;75480;52.260;20.916;2024-01-16T02:56:17;98374.16;;;-1.63
85122;BMP280;75480;52.260;20.916;2024-01-16T02:57:47;98382.91;;;-1.50
85122;BMP280;75480;52.260;20.916;2024-01-16T02:59:18;98411.63;;;-1.43
85122;BMP280;75480;52.260;20.916;2024-01-16T03:00:49;98336.19;;;-1.90
85122;BMP280;75480;52.260;20.916;2024-01-16T03:02:20;98398.91;;;-1.64
85122;BMP280;75480;52.260;20.916;2024-01-16T03:03:51;98381.31;;;-1.69
85122;BMP280;75480;52.260;20.916;2024-01-16T03:05:22;98391.09;;;-1.62
85122;BMP280;75480;52.260;20.916;2024-01-16T03:06:52;98363.69;;;-1.83
85122;BMP280;75480;52.260;20.916;2024-01-16T03:08:23;98376.75;;;-1.81
85122;BMP280;75480;52.260;20.916;2024-01-16T03:09:55;98400.06;;;-1.65
85122;BMP280;75480;52.260;20.916;2024-01-16T03:11:25;98378.06;;;-1.86
85122;BMP280;75480;52.260;20.916;2024-01-16T03:12:56;98426.06;;;-1.59
85122;BMP280;75480;52.260;20.916;2024-01-16T03:14:27;98372.72;;;-1.99
85122;BMP280;75480;52.260;20.916;2024-01-16T03:15:58;98383.13;;;-1.88
85122;BMP280;75480;52.260;20.916;2024-01-16T03:17:29;98421.19;;;-1.73
85122;BMP280;75480;52.260;20.916;2024-01-16T03:19:02;98432.59;;;-1.69
85122;BMP280;75480;52.260;20.916;2024-01-16T03:20:33;98462.81;;;-1.61
85122;BMP280;75480;52.260;20.916;2024-01-16T03:22:03;98378.41;;;-2.18
85122;BMP280;75480;52.260;20.916;2024-01-16T03:23:34;98382.31;;;-2.19
85122;BMP280;75480;52.260;20.916;2024-01-16T03:25:07;98450.00;;;-1.70
85122;BMP280;75480;52.260;20.916;2024-01-16T03:26:37;98411.00;;;-1.91
85122;BMP280;75480;52.260;20.916;2024-01-16T03:28:08;98391.97;;;-2.09
85122;BMP280;75480;52.260;20.916;2024-01-16T03:29:40;98462.94;;;-1.65
85122;BMP280;75480;52.260;20.916;2024-01-16T03:31:13;98417.56;;;-2.14
85122;BMP280;75480;52.260;20.916;2024-01-16T03:32:44;98416.41;;;-2.26
85122;BMP280;75480;52.260;20.916;2024-01-16T03:34:15;98419.19;;;-2.16
85122;BMP280;75480;52.260;20.916;2024-01-16T03:35:46;98389.44;;;-2.38
85122;BMP280;75480;52.260;20.916;2024-01-16T03:37:18;98390.97;;;-2.37
85122;BMP280;75480;52.260;20.916;2024-01-16T03:38:49;98432.44;;;-2.09
85122;BMP280;75480;52.260;20.916;2024-01-16T03:40:22;98399.69;;;-2.33
85122;BMP280;75480;52.260;20.916;2024-01-16T03:41:53;98489.78;;;-1.83
85122;BMP280;75480;52.260;20.916;2024-01-16T03:43:24;98430.34;;;-2.27
85122;BMP280;75480;52.260;20.916;2024-01-16T03:44:54;98482.97;;;-1.88
85122;BMP280;75480;52.260;20.916;2024-01-16T03:46:33;98411.13;;;-2.42
85122;BMP280;75480;52.260;20.916;2024-01-16T03:48:21;98438.94;;;-2.32
85122;BMP280;75480;52.260;20.916;2024-01-16T03:49:52;98422.06;;;-2.45
85122;BMP280;75480;52.260;20.916;2024-01-16T03:51:23;98447.38;;;-2.30
85122;BMP280;75480;52.260;20.916;2024-01-16T03:52:53;98456.56;;;-2.28
85122;BMP280;75480;52.260;20.916;2024-01-16T03:54:24;98507.31;;;-2.01
85122;BMP280;75480;52.260;20.916;2024-01-16T03:55:56;98412.34;;;-2.68
85122;BMP280;75480;52.260;20.916;2024-01-16T03:57:26;98460.13;;;-2.43
85122;BMP280;75480;52.260;20.916;2024-01-16T03:58:57;98468.22;;;-2.43
85122;BMP280;75480;52.260;20.916;2024-01-16T04:00:28;98446.22;;;-2.67
85122;BMP280;75480;52.260;20.916;2024-01-16T04:02:00;98475.44;;;-2.40
85122;BMP280;75480;52.260;20.916;2024-01-16T04:03:31;98482.00;;;-2.41
85122;BMP280;75480;52.260;20.916;2024-01-16T04:05:02;98500.53;;;-2.31
85122;BMP280;75480;52.260;20.916;2024-01-16T04:06:35;98495.50;;;-2.41
85122;BMP280;75480;52.260;20.916;2024-01-16T04:08:06;98549.75;;;-2.01
85122;BMP280;75480;52.260;20.916;2024-01-16T04:09:37;98466.25;;;-2.68
85122;BMP280;75480;52.260;20.916;2024-01-16T04:11:12;98516.75;;;-2.43
85122;BMP280;75480;52.260;20.916;2024-01-16T04:12:44;98492.69;;;-2.50
85122;BMP280;75480;52.260;20.916;2024-01-16T04:14:14;98500.25;;;-2.58
85122;BMP280;75480;52.260;20.916;2024-01-16T04:15:45;98546.09;;;-2.20
85122;BMP280;75480;52.260;20.916;2024-01-16T04:17:16;98503.91;;;-2.65
85122;BMP280;75480;52.260;20.916;2024-01-16T04:18:47;98505.31;;;-2.60
85122;BMP280;75480;52.260;20.916;2024-01-16T04:20:17;98559.81;;;-2.27
85122;BMP280;75480;52.260;20.916;2024-01-16T04:21:48;98510.59;;;-2.69
85122;BMP280;75480;52.260;20.916;2024-01-16T04:23:19;98550.41;;;-2.48
85122;BMP280;75480;52.260;20.916;2024-01-16T04:24:50;98514.28;;;-2.63
85122;BMP280;75480;52.260;20.916;2024-01-16T04:26:21;98542.19;;;-2.57
85122;BMP280;75480;52.260;20.916;2024-01-16T04:27:51;98511.34;;;-2.82
85122;BMP280;75480;52.260;20.916;2024-01-16T04:29:22;98527.28;;;-2.74
85122;BMP280;75480;52.260;20.916;2024-01-16T04:30:56;98546.94;;;-2.61
85122;BMP280;75480;52.260;20.916;2024-01-16T04:32:27;98491.47;;;-3.00
85122;BMP280;75480;52.260;20.916;2024-01-16T04:33:58;98487.78;;;-3.06
85122;BMP280;75480;52.260;20.916;2024-01-16T04:35:28;98519.50;;;-2.85
85122;BMP280;75480;52.260;20.916;2024-01-16T04:36:59;98550.53;;;-2.64
85122;BMP280;75480;52.260;20.916;2024-01-16T04:38:29;98534.72;;;-2.78
85122;BMP280;75480;52.260;20.916;2024-01-16T04:40:00;98545.63;;;-2.69
85122;BMP280;75480;52.260;20.916;2024-01-16T04:41:31;98594.22;;;-2.44
85122;BMP280;75480;52.260;20.916;2024-01-16T04:43:02;98539.47;;;-2.83
85122;BMP280;75480;52.260;20.916;2024-01-16T04:44:33;98601.63;;;-2.48
85122;BMP280;75480;52.260;20.916;2024-01-16T04:46:04;98557.59;;;-2.83
85122;BMP280;75480;52.260;20.916;2024-01-16T04:47:34;98518.50;;;-3.17
85122;BMP280;75480;52.260;20.916;2024-01-16T04:49:05;98563.19;;;-2.90
85122;BMP280;75480;52.260;20.916;2024-01-16T04:50:35;98603.88;;;-2.59
85122;BMP280;75480;52.260;20.916;2024-01-16T04:52:06;98604.13;;;-2.54
85122;BMP280;75480;52.260;20.916;2024-01-16T04:53:37;98622.69;;;-2.56
85122;BMP280;75480;52.260;20.916;2024-01-16T04:55:10;98612.53;;;-2.64
85122;BMP280;75480;52.260;20.916;2024-01-16T04:56:41;98512.50;;;-3.37
85122;BMP280;75480;52.260;20.916;2024-01-16T04:58:12;98583.91;;;-3.03
85122;BMP280;75480;52.260;20.916;2024-01-16T04:59:43;98608.69;;;-2.79
85122;BMP280;75480;52.260;20.916;2024-01-16T05:01:13;98581.22;;;-3.03
85122;BMP280;75480;52.260;20.916;2024-01-16T05:02:44;98579.50;;;-3.10
85122;BMP280;75480;52.260;20.916;2024-01-16T05:04:15;98552.13;;;-3.38
85122;BMP280;75480;52.260;20.916;2024-01-16T05:05:45;98549.50;;;-3.41
85122;BMP280;75480;52.260;20.916;2024-01-16T05:07:16;98548.44;;;-3.44
85122;BMP280;75480;52.260;20.916;2024-01-16T05:08:52;98639.84;;;-2.78
85122;BMP280;75480;52.260;20.916;2024-01-16T05:10:23;98606.78;;;-2.95
85122;BMP280;75480;52.260;20.916;2024-01-16T05:11:54;98600.91;;;-3.19
85122;BMP280;75480;52.260;20.916;2024-01-16T05:13:24;98615.16;;;-3.06
85122;BMP280;75480;52.260;20.916;2024-01-16T05:14:55;98545.00;;;-3.44
85122;BMP280;75480;52.260;20.916;2024-01-16T05:16:27;98577.59;;;-3.26
85122;BMP280;75480;52.260;20.916;2024-01-16T05:17:58;98568.50;;;-3.32
85122;BMP280;75480;52.260;20.916;2024-01-16T05:19:28;98571.63;;;-3.33
85122;BMP280;75480;52.260;20.916;2024-01-16T05:20:59;98614.16;;;-3.12
85122;BMP280;75480;52.260;20.916;2024-01-16T05:22:30;98566.59;;;-3.48
85122;BMP280;75480;52.260;20.916;2024-01-16T05:24:04;98610.72;;;-3.13
85122;BMP280;75480;52.260;20.916;2024-01-16T05:25:35;98601.00;;;-3.23
85122;BMP280;75480;52.260;20.916;2024-01-16T05:27:06;98575.47;;;-3.47
85122;BMP280;75480;52.260;20.916;2024-01-16T05:28:38;98602.00;;;-3.17
85122;BMP280;75480;52.260;20.916;2024-01-16T05:30:10;98589.53;;;-3.27
85122;BMP280;75480;52.260;20.916;2024-01-16T05:31:41;98606.94;;;-3.15
85122;BMP280;75480;52.260;20.916;2024-01-16T05:33:12;98655.13;;;-2.88
85122;BMP280;75480;52.260;20.916;2024-01-16T05:34:43;98642.41;;;-2.88
85122;BMP280;75480;52.260;20.916;2024-01-16T05:36:16;98623.81;;;-2.98
85122;BMP280;75480;52.260;20.916;2024-01-16T05:37:47;98635.44;;;-3.01
85122;BMP280;75480;52.260;20.916;2024-01-16T05:39:20;98597.63;;;-3.27
85122;BMP280;75480;52.260;20.916;2024-01-16T05:40:51;98629.25;;;-3.15
85122;BMP280;75480;52.260;20.916;2024-01-16T05:42:22;98670.78;;;-2.83
85122;BMP280;75480;52.260;20.916;2024-01-16T05:43:53;98674.94;;;-2.95
85122;BMP280;75480;52.260;20.916;2024-01-16T05:45:24;98629.78;;;-3.36
85122;BMP280;75480;52.260;20.916;2024-01-16T05:46:55;98619.44;;;-3.38
85122;BMP280;75480;52.260;20.916;2024-01-16T05:48:26;98643.72;;;-3.09
85122;BMP280;75480;52.260;20.916;2024-01-16T05:49:57;98694.50;;;-2.78
85122;BMP280;75480;52.260;20.916;2024-01-16T05:51:28;98708.75;;;-2.77
85122;BMP280;75480;52.260;20.916;2024-01-16T05:53:00;98668.72;;;-3.08
85122;BMP280;75480;52.260;20.916;2024-01-16T05:54:30;98594.63;;;-3.61
85122;BMP280;75480;52.260;20.916;2024-01-16T05:56:01;98611.22;;;-3.47
85122;BMP280;75480;52.260;20.916;2024-01-16T05:57:32;98621.03;;;-3.40
85122;BMP280;75480;52.260;20.916;2024-01-16T05:59:03;98704.91;;;-2.93
85122;BMP280;75480;52.260;20.916;2024-01-16T06:00:40;98616.06;;;-3.42
85122;BMP280;75480;52.260;20.916;2024-01-16T06:02:34;98666.69;;;-3.04
85122;BMP280;75480;52.260;20.916;2024-01-16T06:04:05;98676.28;;;-3.03
85122;BMP280;75480;52.260;20.916;2024-01-16T06:05:36;98680.69;;;-3.09
85122;BMP280;75480;52.260;20.916;2024-01-16T06:07:07;98689.09;;;-3.07
85122;BMP280;75480;52.260;20.916;2024-01-16T06:08:38;98691.94;;;-2.98
85122;BMP280;75480;52.260;20.916;2024-01-16T06:10:12;98689.94;;;-3.10
85122;BMP280;75480;52.260;20.916;2024-01-16T06:11:42;98744.78;;;-2.71
85122;BMP280;75480;52.260;20.916;2024-01-16T06:13:14;98654.78;;;-3.36
85122;BMP280;75480;52.260;20.916;2024-01-16T06:14:44;98717.63;;;-2.93
85122;BMP280;75480;52.260;20.916;2024-01-16T06:16:15;98736.63;;;-2.84
85122;BMP280;75480;52.260;20.916;2024-01-16T06:17:46;98748.84;;;-2.79
85122;BMP280;75480;52.260;20.916;2024-01-16T06:19:26;98673.72;;;-3.23
85122;BMP280;75480;52.260;20.916;2024-01-16T06:20:57;98656.94;;;-3.30
85122;BMP280;75480;52.260;20.916;2024-01-16T06:22:28;98714.75;;;-3.02
85122;BMP280;75480;52.260;20.916;2024-01-16T06:23:59;98710.06;;;-3.15
85122;BMP280;75480;52.260;20.916;2024-01-16T06:25:29;98759.88;;;-2.74
85122;BMP280;75480;52.260;20.916;2024-01-16T06:27:00;98766.25;;;-2.68
85122;BMP280;75480;52.260;20.916;2024-01-16T06:28:31;98732.53;;;-3.05
85122;BMP280;75480;52.260;20.916;2024-01-16T06:30:02;98741.03;;;-2.90
85122;BMP280;75480;52.260;20.916;2024-01-16T06:31:34;98742.38;;;-2.82
85122;BMP280;75480;52.260;20.916;2024-01-16T06:33:05;98733.38;;;-2.92
85122;BMP280;75480;52.260;20.916;2024-01-16T06:34:36;98712.31;;;-3.13
85122;BMP280;75480;52.260;20.916;2024-01-16T06:36:07;98702.41;;;-3.16
85122;BMP280;75480;52.260;20.916;2024-01-16T06:37:38;98780.00;;;-2.62
85122;BMP280;75480;52.260;20.916;2024-01-16T06:39:08;98794.91;;;-2.58
85122;BMP280;75480;52.260;20.916;2024-01-16T06:40:39;98804.69;;;-2.64
85122;BMP280;75480;52.260;20.916;2024-01-16T06:42:10;98753.91;;;-3.14
85122;BMP280;75480;52.260;20.916;2024-01-16T06:43:41;98735.97;;;-3.21
85122;BMP280;75480;52.260;20.916;2024-01-16T06:45:12;98746.91;;;-3.12
85122;BMP280;75480;52.260;20.916;2024-01-16T06:46:43;98745.66;;;-3.07
85122;BMP280;75480;52.260;20.916;2024-01-16T06:48:14;98738.34;;;-3.06
85122;BMP280;75480;52.260;20.916;2024-01-16T06:49:46;98718.22;;;-3.34
85122;BMP280;75480;52.260;20.916;2024-01-16T06:51:17;98767.66;;;-3.09
85122;BMP280;75480;52.260;20.916;2024-01-16T06:52:49;98812.81;;;-2.67
85122;BMP280;75480;52.260;20.916;2024-01-16T06:54:20;98815.09;;;-2.66
85122;BMP280;75480;52.260;20.916;2024-01-16T06:55:51;98764.44;;;-3.03
85122;BMP280;75480;52.260;20.916;2024-01-16T06:57:22;98766.63;;;-2.98
85122;BMP280;75480;52.260;20.916;2024-01-16T06:58:53;98767.81;;;-2.99
85122;BMP280;75480;52.260;20.916;2024-01-16T07:00:24;98779.50;;;-3.06
85122;BMP280;75480;52.260;20.916;2024-01-16T07:01:56;98837.63;;;-2.72
85122;BMP280;75480;52.260;20.916;2024-01-16T07:03:27;98735.78;;;-3.30
85122;BMP280;75480;52.260;20.916;2024-01-16T07:04:58;98781.59;;;-2.97
85122;BMP280;75480;52.260;20.916;2024-01-16T07:06:29;98826.59;;;-2.78
85122;BMP280;75480;52.260;20.916;2024-01-16T07:08:00;98852.19;;;-2.54
85122;BMP280;75480;52.260;20.916;2024-01-16T07:09:31;98795.25;;;-2.88
85122;BMP280;75480;52.260;20.916;2024-01-16T07:11:02;98816.13;;;-2.76
85122;BMP280;75480;52.260;20.916;2024-01-16T07:12:34;98765.34;;;-3.26
85122;BMP280;75480;52.260;20.916;2024-01-16T07:14:06;98811.06;;;-3.06
85122;BMP280;75480;52.260;20.916;2024-01-16T07:15:38;98769.13;;;-3.40
85122;BMP280;75480;52.260;20.916;2024-01-16T07:17:09;98765.44;;;-3.46
85122;BMP280;75480;52.260;20.916;2024-01-16T07:18:40;98829.03;;;-3.00
85122;BMP280;75480;52.260;20.916;2024-01-16T07:20:11;98828.09;;;-2.93
85122;BMP280;75480;52.260;20.916;2024-01-16T07:21:42;98848.66;;;-2.83
85122;BMP280;75480;52.260;20.916;2024-01-16T07:23:13;98824.28;;;-2.96
85122;BMP280;75480;52.260;20.916;2024-01-16T07:24:43;98805.59;;;-3.03
85122;BMP280;75480;52.260;20.916;2024-01-16T07:26:15;98814.97;;;-3.08
85122;BMP280;75480;52.260;20.916;2024-01-16T07:27:46;98819.81;;;-3.02
85122;BMP280;75480;52.260;20.916;2024-01-16T07:29:24;98826.75;;;-3.01
85122;BMP280;75480;52.260;20.916;2024-01-16T07:30:55;98807.38;;;-3.13
85122;BMP280;75480;52.260;20.916;2024-01-16T07:32:26;98843.75;;;-3.04
85122;BMP280;75480;52.260;20.916;2024-01-16T07:33:57;98834.50;;;-3.20
85122;BMP280;75480;52.260;20.916;2024-01-16T07:35:28;98865.22;;;-3.01
85122;BMP280;75480;52.260;20.916;2024-01-16T07:36:59;98897.78;;;-2.92
85122;BMP280;75480;52.260;20.916;2024-01-16T07:38:32;98857.91;;;-3.00
85122;BMP280;75480;52.260;20.916;2024-01-16T07:40:03;98876.75;;;-3.00
85122;BMP280;75480;52.260;20.916;2024-01-16T07:41:36;98899.09;;;-2.84
85122;BMP280;75480;52.260;20.916;2024-01-16T07:43:07;98860.16;;;-3.15
85122;BMP280;75480;52.260;20.916;2024-01-16T07:44:38;98854.34;;;-3.14
85122;BMP280;75480;52.260;20.916;2024-01-16T07:46:08;98871.19;;;-3.10
85122;BMP280;75480;52.260;20.916;2024-01-16T07:47:39;98927.13;;;-2.61
85122;BMP280;75480;52.260;20.916;2024-01-16T07:49:10;98889.59;;;-2.88
85122;BMP280;75480;52.260;20.916;2024-01-16T07:50:40;98900.03;;;-2.90
85122;BMP280;75480;52.260;20.916;2024-01-16T07:52:11;98947.34;;;-2.53
85122;BMP280;75480;52.260;20.916;2024-01-16T07:53:43;98910.25;;;-2.82
85122;BMP280;75480;52.260;20.916;2024-01-16T07:55:13;98903.66;;;-2.81
85122;BMP280;75480;52.260;20.916;2024-01-16T07:56:44;98928.97;;;-2.58
85122;BMP280;75480;52.260;20.916;2024-01-16T07:58:16;98866.41;;;-2.86
85122;BMP280;75480;52.260;20.916;2024-01-16T07:59:46;98890.59;;;-2.66
85122;BMP280;75480;52.260;20.916;2024-01-16T08:01:19;98846.03;;;-2.87
85122;BMP280;75480;52.260;20.916;2024-01-16T08:02:50;98947.09;;;-2.10
85122;BMP280;75480;52.260;20.916;2024-01-16T08:04:21;98872.22;;;-2.38
85122;BMP280;75480;52.260;20.916;2024-01-16T08:05:51;98889.41;;;-2.16
85122;BMP280;75480;52.260;20.916;2024-01-16T08:07:22;98903.34;;;-1.88
85122;BMP280;75480;52.260;20.916;2024-01-16T08:08:56;98935.59;;;-1.68
85122;BMP280;75480;52.260;20.916;2024-01-16T08:10:26;98908.44;;;-2.07
85122;BMP280;75480;52.260;20.916;2024-01-16T08:11:57;98913.38;;;-2.18
85122;BMP280;75480;52.260;20.916;2024-01-16T08:13:28;98927.47;;;-1.81
85122;BMP280;75480;52.260;20.916;2024-01-16T08:14:58;98928.06;;;-1.90
85122;BMP280;75480;52.260;20.916;2024-01-16T08:16:30;98923.88;;;-2.07
85122;BMP280;75480;52.260;20.916;2024-01-16T08:18:00;98929.72;;;-2.09
85122;BMP280;75480;52.260;20.916;2024-01-16T08:19:31;98973.50;;;-1.88
85122;BMP280;75480;52.260;20.916;2024-01-16T08:21:03;98943.94;;;-1.92
85122;BMP280;75480;52.260;20.916;2024-01-16T08:22:34;98972.78;;;-1.60
85122;BMP280;75480;52.260;20.916;2024-01-16T08:24:04;98925.53;;;-1.81
85122;BMP280;75480;52.260;20.916;2024-01-16T08:25:36;98888.94;;;-1.98
85122;BMP280;75480;52.260;20.916;2024-01-16T08:27:06;98919.72;;;-1.66
85122;BMP280;75480;52.260;20.916;2024-01-16T08:28:37;98912.06;;;-1.68
85122;BMP280;75480;52.260;20.916;2024-01-16T08:30:08;98945.44;;;-1.33
85122;BMP280;75480;52.260;20.916;2024-01-16T08:31:39;98976.84;;;-1.39
85122;BMP280;75480;52.260;20.916;2024-01-16T08:33:11;98935.41;;;-1.61
85122;BMP280;75480;52.260;20.916;2024-01-16T08:34:43;98961.59;;;-1.46
85122;BMP280;75480;52.260;20.916;2024-01-16T08:36:14;98957.44;;;-1.34
85122;BMP280;75480;52.260;20.916;2024-01-16T08:37:45;98948.16;;;-1.33
85122;BMP280;75480;52.260;20.916;2024-01-16T08:39:16;98970.66;;;-1.23